createdAt,value
2023-04-12T00:02:00.717Z,12.70
2023-04-12T00:04:29.044Z,15.03
2023-04-12T00:06:56.315Z,13.98
2023-04-12T00:09:23.282Z,18.08
2023-04-12T00:11:49.874Z,14.50
2023-04-12T00:14:16.912Z,14.13
2023-04-12T00:16:43.525Z,14.83
2023-04-12T00:19:10.470Z,13.77
2023-04-12T00:21:37.032Z,16.42
2023-04-12T00:24:03.722Z,13.73
2023-04-12T00:26:30.304Z,14.68
2023-04-12T00:28:56.972Z,12.60
2023-04-12T00:31:23.987Z,12.27
2023-04-12T00:33:50.700Z,12.07
2023-04-12T00:36:17.315Z,14.88
2023-04-12T00:38:46.085Z,14.93
2023-04-12T00:41:13.836Z,13.80
2023-04-12T00:43:43.562Z,16.95
2023-04-12T00:46:11.774Z,15.98
2023-04-12T00:48:38.921Z,17.55
2023-04-12T00:51:07.044Z,13.85
2023-04-12T00:53:34.449Z,12.07
2023-04-12T00:56:01.816Z,14.80
2023-04-12T00:58:31.936Z,12.18
2023-04-12T01:00:58.683Z,11.25
2023-04-12T01:03:27.829Z,16.20
2023-04-12T01:06:51.886Z,13.20
2023-04-12T01:09:20.617Z,11.30
2023-04-12T01:12:09.009Z,17.35
2023-04-12T01:14:37.949Z,19.80
2023-04-12T01:17:08.151Z,12.55
2023-04-12T01:19:59.493Z,16.40
2023-04-12T01:23:14.787Z,13.65
2023-04-12T01:26:33.237Z,14.38
2023-04-12T01:29:02.476Z,11.15
2023-04-12T01:31:33.834Z,13.40
2023-04-12T01:34:02.660Z,11.53
2023-04-12T01:36:30.900Z,13.05
2023-04-12T01:38:58.066Z,11.15
2023-04-12T01:41:24.839Z,16.33
2023-04-12T01:43:51.408Z,16.00
2023-04-12T01:46:22.665Z,12.47
2023-04-12T01:48:53.503Z,15.52
2023-04-12T01:51:38.444Z,15.50
2023-04-12T01:54:11.807Z,15.73
2023-04-12T01:56:46.556Z,12.35
2023-04-12T01:59:17.546Z,12.17
2023-04-12T02:01:46.744Z,18.08
2023-04-12T02:04:15.544Z,12.55
2023-04-12T02:06:43.553Z,13.57
2023-04-12T02:09:10.319Z,14.85
2023-04-12T02:11:37.362Z,9.90
2023-04-12T02:14:06.366Z,16.33
2023-04-12T02:16:34.343Z,12.38
2023-04-12T02:19:00.961Z,12.98
2023-04-12T02:21:27.862Z,13.75
2023-04-12T02:23:55.035Z,9.43
2023-04-12T02:26:23.432Z,11.18
2023-04-12T02:28:50.229Z,9.85
2023-04-12T02:31:17.209Z,10.57
2023-04-12T02:33:44.115Z,12.35
2023-04-12T02:36:11.545Z,9.40
2023-04-12T02:38:40.925Z,13.02
2023-04-12T02:41:09.835Z,15.70
2023-04-12T02:43:38.688Z,9.85
2023-04-12T02:46:05.515Z,12.43
2023-04-12T02:48:35.295Z,11.57
2023-04-12T02:51:01.863Z,9.38
2023-04-12T02:53:28.910Z,13.43
2023-04-12T02:55:57.292Z,10.25
2023-04-12T02:58:24.515Z,14.75
2023-04-12T03:00:51.084Z,13.93
2023-04-12T03:03:18.182Z,10.13
2023-04-12T03:05:47.281Z,8.82
2023-04-12T03:08:16.336Z,11.73
2023-04-12T03:10:42.882Z,13.60
2023-04-12T03:13:09.429Z,10.57
2023-04-12T03:15:36.031Z,10.13
2023-04-12T03:18:03.274Z,13.38
2023-04-12T03:20:29.870Z,8.45
2023-04-12T03:22:56.491Z,8.65
2023-04-12T03:25:23.053Z,10.07
2023-04-12T03:27:49.588Z,10.57
2023-04-12T03:30:16.163Z,11.27
2023-04-12T03:32:44.413Z,9.77
2023-04-12T03:35:11.424Z,13.32
2023-04-12T03:37:43.200Z,9.47
2023-04-12T03:40:12.782Z,11.05
2023-04-12T03:42:39.418Z,9.02
2023-04-12T03:45:06.640Z,9.60
2023-04-12T03:47:35.779Z,9.73
2023-04-12T03:50:11.441Z,12.43
2023-04-12T03:52:39.115Z,15.50
2023-04-12T03:55:07.625Z,11.15
2023-04-12T03:57:34.877Z,9.52
2023-04-12T04:00:01.750Z,12.70
2023-04-12T04:02:28.638Z,12.53
2023-04-12T04:04:55.606Z,10.93
2023-04-12T04:07:22.633Z,8.80
2023-04-12T04:09:50.163Z,12.77
2023-04-12T04:12:16.892Z,9.82
2023-04-12T04:14:44.194Z,14.03
2023-04-12T04:17:11.122Z,9.82
2023-04-12T04:19:38.206Z,10.88
2023-04-12T04:22:04.973Z,8.13
2023-04-12T04:24:31.584Z,9.75
2023-04-12T04:26:58.877Z,11.30
2023-04-12T04:29:26.160Z,9.52
2023-04-12T04:31:53.886Z,7.85
2023-04-12T04:34:22.342Z,12.90
2023-04-12T04:36:49.283Z,8.98
2023-04-12T04:39:15.926Z,9.17
2023-04-12T04:41:42.784Z,8.68
2023-04-12T04:44:09.653Z,10.95
2023-04-12T04:46:38.062Z,9.77
2023-04-12T04:49:05.726Z,6.18
2023-04-12T04:51:32.513Z,8.67
2023-04-12T04:53:59.329Z,10.65
2023-04-12T04:56:26.296Z,10.88
2023-04-12T04:58:54.726Z,11.70
2023-04-12T05:01:28.664Z,7.05
2023-04-12T05:03:57.968Z,12.27
2023-04-12T05:06:24.580Z,9.45
2023-04-12T05:08:52.517Z,8.27
2023-04-12T05:11:19.958Z,12.38
2023-04-12T05:13:46.494Z,8.88
2023-04-12T05:16:13.159Z,7.53
2023-04-12T05:18:39.806Z,5.22
2023-04-12T05:21:06.651Z,8.30
2023-04-12T05:23:36.908Z,8.13
2023-04-12T05:26:04.166Z,9.70
2023-04-12T05:28:30.945Z,8.87
2023-04-12T05:30:57.543Z,9.05
2023-04-12T05:33:24.239Z,9.32
2023-04-12T05:35:50.797Z,7.57
2023-04-12T05:38:17.362Z,8.52
2023-04-12T05:40:44.374Z,8.10
2023-04-12T05:43:13.869Z,10.95
2023-04-12T05:45:41.605Z,5.05
2023-04-12T05:48:08.992Z,9.25
2023-04-12T05:50:35.910Z,7.85
2023-04-12T05:53:02.842Z,7.03
2023-04-12T05:55:30.060Z,6.32
2023-04-12T05:57:58.543Z,8.85
2023-04-12T06:00:28.115Z,7.97
2023-04-12T06:02:55.055Z,9.98
2023-04-12T06:05:22.900Z,6.43
2023-04-12T06:07:49.775Z,9.02
2023-04-12T06:10:17.757Z,8.10
2023-04-12T06:12:47.780Z,7.60
2023-04-12T06:15:14.623Z,7.57
2023-04-12T06:17:41.381Z,6.23
2023-04-12T06:20:09.735Z,6.28
2023-04-12T06:22:37.218Z,7.18
2023-04-12T06:25:04.643Z,6.80
2023-04-12T06:27:31.653Z,7.10
2023-04-12T06:29:59.302Z,8.53
2023-04-12T06:32:26.342Z,4.97
2023-04-12T06:34:53.110Z,7.15
2023-04-12T06:37:23.936Z,6.72
2023-04-12T06:39:50.475Z,8.40
2023-04-12T06:42:17.651Z,9.27
2023-04-12T06:44:44.225Z,6.03
2023-04-12T06:47:11.472Z,6.05
2023-04-12T06:49:38.997Z,8.90
2023-04-12T06:52:05.601Z,8.25
2023-04-12T06:54:32.958Z,6.70
2023-04-12T06:57:01.750Z,5.63
2023-04-12T06:59:29.116Z,6.03
2023-04-12T07:01:55.827Z,8.85
2023-04-12T07:04:22.659Z,5.95
2023-04-12T07:06:49.271Z,9.63
2023-04-12T07:09:15.816Z,6.22
2023-04-12T07:11:43.302Z,7.53
2023-04-12T07:14:09.853Z,6.15
2023-04-12T07:16:36.500Z,6.03
2023-04-12T07:19:03.130Z,6.90
2023-04-12T07:21:29.917Z,7.60
2023-04-12T07:23:56.460Z,6.07
2023-04-12T07:26:23.391Z,6.40
2023-04-12T07:28:50.081Z,6.47
2023-04-12T07:31:18.903Z,9.80
2023-04-12T07:33:45.602Z,5.38
2023-04-12T07:36:12.430Z,5.40
2023-04-12T07:38:39.177Z,11.25
2023-04-12T07:41:08.133Z,7.40
2023-04-12T07:43:34.762Z,4.70
2023-04-12T07:46:04.750Z,7.15
2023-04-12T07:48:31.433Z,10.00
2023-04-12T07:50:58.143Z,4.53
2023-04-12T07:53:28.648Z,8.60
2023-04-12T07:55:58.078Z,7.67
2023-04-12T07:58:25.437Z,7.25
2023-04-12T08:00:58.072Z,7.13
2023-04-12T08:03:28.189Z,6.25
2023-04-12T08:05:54.940Z,4.45
2023-04-12T08:08:24.114Z,4.90
2023-04-12T08:10:52.118Z,7.35
2023-04-12T08:13:19.692Z,5.40
2023-04-12T08:15:47.690Z,5.43
2023-04-12T08:18:14.709Z,9.15
2023-04-12T08:20:42.267Z,11.33
2023-04-12T08:23:09.497Z,12.98
2023-04-12T08:25:36.292Z,7.57
2023-04-12T08:28:03.973Z,8.57
2023-04-12T08:30:31.183Z,10.93
2023-04-12T08:32:57.912Z,9.13
2023-04-12T08:35:24.577Z,6.80
2023-04-12T08:37:53.601Z,7.43
2023-04-12T08:40:21.892Z,6.28
2023-04-12T08:42:52.793Z,7.78
2023-04-12T08:45:19.401Z,7.60
2023-04-12T08:47:46.654Z,7.75
2023-04-12T08:50:14.238Z,9.52
2023-04-12T08:52:43.615Z,7.78
2023-04-12T08:55:11.236Z,12.30
2023-04-12T08:57:41.215Z,13.77
2023-04-12T09:00:10.798Z,13.18
2023-04-12T09:02:38.754Z,13.55
2023-04-12T09:05:07.072Z,7.95
2023-04-12T09:07:36.629Z,10.63
2023-04-12T09:10:04.798Z,12.77
2023-04-12T09:12:34.284Z,10.05
2023-04-12T09:15:13.701Z,10.20
2023-04-12T09:17:42.046Z,12.02
2023-04-12T09:20:18.038Z,11.80
2023-04-12T09:22:46.700Z,10.50
2023-04-12T09:25:14.527Z,9.90
2023-04-12T09:27:52.483Z,12.52
2023-04-12T09:30:20.404Z,6.40
2023-04-12T09:32:49.674Z,8.07
2023-04-12T09:35:16.762Z,10.77
2023-04-12T09:37:43.439Z,15.52
2023-04-12T09:40:10.769Z,6.80
2023-04-12T09:42:52.578Z,15.35
2023-04-12T09:45:22.143Z,8.73
2023-04-12T09:47:49.496Z,11.43
2023-04-12T09:50:27.386Z,10.43
2023-04-12T09:52:55.626Z,10.18
2023-04-12T09:55:23.996Z,7.25
2023-04-12T09:57:54.869Z,7.68
2023-04-12T10:00:26.945Z,7.13
2023-04-12T10:02:55.665Z,6.88
2023-04-12T10:05:26.224Z,7.00
2023-04-12T10:07:56.769Z,6.75
2023-04-12T10:10:23.728Z,8.73
2023-04-12T10:12:52.862Z,7.27
2023-04-12T10:15:21.906Z,10.65
2023-04-12T10:17:53.605Z,6.68
2023-04-12T10:20:23.312Z,6.22
2023-04-12T10:22:52.829Z,13.40
2023-04-12T10:25:25.770Z,11.10
2023-04-12T10:27:53.442Z,11.15
2023-04-12T10:30:33.229Z,8.80
2023-04-12T10:33:02.900Z,10.57
2023-04-12T10:35:30.719Z,11.13
2023-04-12T10:38:00.363Z,8.20
2023-04-12T10:40:31.806Z,10.68
2023-04-12T10:43:23.324Z,15.25
2023-04-12T10:45:50.539Z,10.93
2023-04-12T10:48:32.867Z,17.80
2023-04-12T10:51:28.185Z,12.07
2023-04-12T10:54:17.503Z,13.38
2023-04-12T10:56:46.066Z,8.18
2023-04-12T10:59:14.164Z,8.18
2023-04-12T11:01:42.398Z,13.00
2023-04-12T11:04:17.642Z,34.43
2023-04-12T11:06:51.383Z,19.65
2023-04-12T11:09:34.027Z,14.68
2023-04-12T11:12:08.089Z,15.25
2023-04-12T11:14:48.199Z,14.70
2023-04-12T11:17:17.780Z,20.33
2023-04-12T11:19:51.363Z,24.65
2023-04-12T11:22:19.955Z,17.38
2023-04-12T11:24:46.768Z,21.60
2023-04-12T11:27:13.969Z,14.80
2023-04-12T11:29:40.598Z,23.03
2023-04-12T11:32:12.688Z,27.00
2023-04-12T11:34:39.706Z,50.22
2023-04-12T11:37:10.669Z,52.35
2023-04-12T11:39:45.370Z,48.88
2023-04-12T11:42:18.153Z,50.90
2023-04-12T11:47:23.992Z,36.92
2023-04-12T11:49:56.516Z,24.33
2023-04-12T11:52:31.686Z,29.40
2023-04-12T11:55:06.468Z,27.13
2023-04-12T11:57:34.490Z,25.50
2023-04-12T12:00:01.484Z,21.17
2023-04-12T12:02:39.307Z,18.20
2023-04-12T12:05:13.387Z,20.95
2023-04-12T12:07:40.251Z,26.97
2023-04-12T12:10:07.648Z,19.05
2023-04-12T12:12:35.094Z,16.55
2023-04-12T12:15:02.080Z,19.95
2023-04-12T12:17:38.044Z,19.40
2023-04-12T12:20:05.252Z,20.43
2023-04-12T12:22:31.954Z,22.33
2023-04-12T12:25:00.381Z,16.88
2023-04-12T12:27:40.741Z,16.90
2023-04-12T12:30:09.527Z,16.05
2023-04-12T12:32:39.060Z,16.53
2023-04-12T12:35:10.587Z,18.33
2023-04-12T12:37:37.376Z,14.32
2023-04-12T12:40:21.661Z,18.33
2023-04-12T12:42:55.001Z,24.27
2023-04-12T12:45:26.691Z,28.33
2023-04-12T12:47:55.928Z,24.08
2023-04-12T12:50:25.359Z,31.30
2023-04-12T12:52:53.069Z,22.90
2023-04-12T12:55:21.431Z,20.92
2023-04-12T12:58:02.102Z,19.83
2023-04-12T13:00:36.560Z,14.13
2023-04-12T13:03:03.715Z,15.98
2023-04-12T13:05:30.893Z,19.38
2023-04-12T13:07:57.477Z,15.77
2023-04-12T13:10:24.370Z,19.17
2023-04-12T13:12:51.549Z,12.65
2023-04-12T13:15:23.001Z,14.52
2023-04-12T13:17:54.741Z,11.93
2023-04-12T13:20:27.797Z,9.82
2023-04-12T13:22:54.503Z,9.53
2023-04-12T13:25:21.681Z,13.32
2023-04-12T13:27:51.920Z,14.43
2023-04-12T13:30:19.792Z,14.32
2023-04-12T13:32:46.918Z,10.60
2023-04-12T13:35:13.803Z,12.70
2023-04-12T13:37:40.513Z,11.20
2023-04-12T13:40:07.902Z,13.48
2023-04-12T13:42:34.710Z,14.18
2023-04-12T13:45:01.628Z,11.52
2023-04-12T13:47:28.477Z,10.07
2023-04-12T13:49:55.101Z,12.52
2023-04-12T13:52:21.646Z,7.53
2023-04-12T13:54:48.789Z,12.00
2023-04-12T13:57:17.667Z,12.30
2023-04-12T13:59:46.473Z,7.67
2023-04-12T14:02:15.707Z,10.45
2023-04-12T14:04:53.095Z,6.45
2023-04-12T14:07:20.244Z,6.60
2023-04-12T14:09:48.658Z,10.68
2023-04-12T14:12:15.586Z,7.73
2023-04-12T14:14:42.418Z,8.55
2023-04-12T14:17:09.244Z,12.68
2023-04-12T14:19:36.084Z,9.90
2023-04-12T14:22:02.738Z,10.68
2023-04-12T14:24:31.932Z,9.43
2023-04-12T14:27:00.899Z,9.73
2023-04-12T14:29:29.672Z,9.70
2023-04-12T14:31:56.223Z,10.18
2023-04-12T14:34:22.820Z,10.65
2023-04-12T14:36:52.013Z,10.03
2023-04-12T14:39:18.687Z,10.63
2023-04-12T14:41:45.277Z,8.48
2023-04-12T14:44:12.101Z,14.52
2023-04-12T14:46:39.157Z,26.13
2023-04-12T14:49:06.172Z,35.47
2023-04-12T14:51:33.260Z,43.22
2023-04-12T14:54:00.141Z,51.50
2023-04-12T14:56:30.293Z,40.47
2023-04-12T14:58:58.136Z,26.15
2023-04-12T15:01:28.766Z,21.83
2023-04-12T15:03:55.765Z,23.88
2023-04-12T15:06:23.591Z,19.15
2023-04-12T15:08:54.965Z,21.55
2023-04-12T15:11:27.492Z,18.70
2023-04-12T15:13:55.334Z,16.33
2023-04-12T15:16:22.592Z,14.02
2023-04-12T15:18:51.425Z,11.82
2023-04-12T15:21:18.175Z,13.40
2023-04-12T15:23:45.112Z,14.75
2023-04-12T15:26:14.096Z,11.27
2023-04-12T15:28:41.539Z,12.00
2023-04-12T15:31:09.450Z,8.75
2023-04-12T15:33:39.242Z,10.55
2023-04-12T15:36:06.248Z,8.98
2023-04-12T15:38:40.057Z,10.67
2023-04-12T15:41:07.009Z,11.23
2023-04-12T15:43:33.585Z,11.43
2023-04-12T15:46:02.585Z,12.88
2023-04-12T15:48:29.335Z,13.57
2023-04-12T15:50:56.730Z,11.63
2023-04-12T15:53:27.617Z,8.50
2023-04-12T15:55:55.306Z,8.27
2023-04-12T15:58:23.442Z,10.77
2023-04-12T16:00:50.407Z,8.60
2023-04-12T16:03:23.092Z,11.27
2023-04-12T16:05:53.485Z,8.73
2023-04-12T16:08:20.891Z,13.48
2023-04-12T16:10:47.542Z,10.93
2023-04-12T16:13:14.644Z,6.75
2023-04-12T16:15:41.376Z,9.80
2023-04-12T16:18:10.426Z,8.13
2023-04-12T16:20:37.524Z,11.32
2023-04-12T16:23:05.171Z,7.75
2023-04-12T16:25:32.268Z,7.30
2023-04-12T16:28:02.422Z,9.70
2023-04-12T16:30:31.200Z,7.45
2023-04-12T16:32:58.265Z,10.25
2023-04-12T16:35:24.975Z,9.38
2023-04-12T16:37:52.282Z,7.82
2023-04-12T16:40:19.093Z,9.07
2023-04-12T16:42:45.880Z,7.63
2023-04-12T16:45:16.461Z,8.25
2023-04-12T16:47:45.996Z,10.25
2023-04-12T16:50:13.574Z,8.15
2023-04-12T16:52:43.293Z,6.67
2023-04-12T16:55:14.234Z,5.90
2023-04-12T16:57:42.873Z,8.00
2023-04-12T17:00:21.418Z,8.75
2023-04-12T17:02:52.241Z,8.65
2023-04-12T17:05:20.308Z,7.23
2023-04-12T17:07:51.373Z,6.25
2023-04-12T17:10:19.758Z,7.47
2023-04-12T17:12:50.618Z,8.23
2023-04-12T17:15:18.783Z,5.50
2023-04-12T17:18:10.893Z,7.03
2023-04-12T17:20:38.211Z,6.57
2023-04-12T17:23:07.576Z,6.95
2023-04-12T17:25:35.098Z,6.07
2023-04-12T17:28:02.264Z,6.50
2023-04-12T17:30:29.399Z,7.73
2023-04-12T17:32:56.568Z,6.13
2023-04-12T17:35:23.302Z,8.02
2023-04-12T17:37:50.003Z,5.45
2023-04-12T17:40:16.967Z,6.15
2023-04-12T17:42:44.227Z,6.63
2023-04-12T17:45:12.895Z,6.80
2023-04-12T17:47:42.907Z,5.07
2023-04-12T17:50:10.679Z,5.45
2023-04-12T17:52:37.965Z,4.75
2023-04-12T17:55:05.947Z,4.07
2023-04-12T17:57:32.726Z,6.90
2023-04-12T17:59:59.455Z,6.72
2023-04-12T18:02:26.696Z,4.25
2023-04-12T18:04:53.456Z,5.20
2023-04-12T18:07:20.058Z,6.17
2023-04-12T18:09:46.826Z,6.80
2023-04-12T18:12:13.617Z,6.60
2023-04-12T18:14:43.292Z,4.38
2023-04-12T18:17:10.255Z,5.32
2023-04-12T18:19:36.945Z,5.63
2023-04-12T18:22:03.651Z,6.20
2023-04-12T18:24:30.614Z,5.78
2023-04-12T18:26:59.319Z,3.60
2023-04-12T18:29:26.221Z,3.45
2023-04-12T18:31:53.096Z,3.07
2023-04-12T18:34:19.888Z,5.20
2023-04-12T18:36:48.918Z,4.85
2023-04-12T18:39:16.390Z,5.18
2023-04-12T18:41:43.003Z,4.03
2023-04-12T18:44:09.808Z,5.90
2023-04-12T18:46:36.790Z,4.35
2023-04-12T18:49:04.618Z,3.15
2023-04-12T18:51:32.941Z,2.55
2023-04-12T18:54:00.697Z,3.97
2023-04-12T18:56:28.017Z,5.00
2023-04-12T18:58:56.812Z,5.85
2023-04-12T19:01:26.253Z,7.07
2023-04-12T19:03:52.978Z,7.57
2023-04-12T19:06:22.150Z,8.40
2023-04-12T19:08:49.865Z,5.03
2023-04-12T19:11:19.698Z,7.65
2023-04-12T19:13:46.621Z,9.10
2023-04-12T19:16:13.878Z,10.55
2023-04-12T19:18:40.503Z,7.70
2023-04-12T19:21:09.411Z,8.43
2023-04-12T19:23:37.194Z,8.35
2023-04-12T19:26:05.602Z,11.15
2023-04-12T19:28:32.229Z,9.60
2023-04-12T19:30:58.907Z,7.05
2023-04-12T19:33:25.938Z,6.93
2023-04-12T19:35:56.384Z,8.73
2023-04-12T19:38:23.040Z,4.50
2023-04-12T19:40:51.175Z,6.40
2023-04-12T19:43:20.971Z,6.50
2023-04-12T19:45:47.850Z,7.00
2023-04-12T19:48:14.664Z,5.70
2023-04-12T19:50:41.706Z,7.10
2023-04-12T19:53:08.497Z,6.07
2023-04-12T19:55:35.297Z,8.27
2023-04-12T19:58:04.018Z,7.97
2023-04-12T20:00:30.672Z,7.55
2023-04-12T20:02:57.578Z,7.20
2023-04-12T20:05:27.672Z,7.43
2023-04-12T20:07:56.027Z,6.85
2023-04-12T20:10:23.028Z,6.30
2023-04-12T20:12:49.673Z,7.55
2023-04-12T20:15:17.704Z,5.15
2023-04-12T20:17:45.903Z,6.93
2023-04-12T20:20:14.343Z,6.15
2023-04-12T20:22:42.597Z,7.50
2023-04-12T20:25:14.683Z,5.47
2023-04-12T20:27:41.365Z,7.10
2023-04-12T20:30:11.404Z,9.07
2023-04-12T20:32:38.764Z,7.40
2023-04-12T20:35:06.625Z,5.90
2023-04-12T20:37:33.833Z,6.43
2023-04-12T20:40:06.184Z,5.47
2023-04-12T20:42:32.811Z,7.40
2023-04-12T20:44:59.834Z,5.93
2023-04-12T20:47:27.508Z,6.50
2023-04-12T20:49:56.213Z,8.32
2023-04-12T20:52:22.946Z,5.75
2023-04-12T20:54:49.692Z,5.93
2023-04-12T20:57:19.829Z,7.22
2023-04-12T20:59:46.865Z,5.63
2023-04-12T21:02:16.609Z,6.13
2023-04-12T21:04:45.166Z,5.63
2023-04-12T21:07:12.064Z,6.30
2023-04-12T21:09:39.040Z,5.07
2023-04-12T21:12:08.432Z,5.73
2023-04-12T21:14:36.084Z,7.75
2023-04-12T21:17:07.045Z,6.72
2023-04-12T21:19:38.991Z,5.75
2023-04-12T21:22:07.089Z,5.43
2023-04-12T21:24:38.260Z,6.83
2023-04-12T21:27:08.481Z,6.97
2023-04-12T21:29:41.519Z,5.95
2023-04-12T21:32:09.211Z,6.47
2023-04-12T21:34:39.272Z,6.72
2023-04-12T21:37:05.934Z,9.60
2023-04-12T21:39:32.988Z,8.00
2023-04-12T21:41:59.643Z,9.27
2023-04-12T21:44:26.750Z,9.50
2023-04-12T21:46:53.323Z,8.88
2023-04-12T21:49:20.061Z,10.37
2023-04-12T21:51:47.163Z,9.50
2023-04-12T21:54:16.884Z,7.28
2023-04-12T21:56:48.375Z,9.00
2023-04-12T21:59:14.953Z,5.93
2023-04-12T22:01:42.017Z,5.20
2023-04-12T22:04:08.748Z,10.57
2023-04-12T22:06:35.393Z,11.15
2023-04-12T22:09:03.008Z,8.63
2023-04-12T22:11:30.513Z,8.32
2023-04-12T22:13:58.003Z,9.83
2023-04-12T22:16:28.031Z,10.50
2023-04-12T22:18:55.773Z,8.30
2023-04-12T22:21:22.929Z,11.93
2023-04-12T22:23:52.063Z,10.07
2023-04-12T22:26:18.594Z,11.47
2023-04-12T22:28:48.386Z,11.70
2023-04-12T22:31:15.002Z,10.52
2023-04-12T22:33:42.589Z,13.63
2023-04-12T22:36:10.067Z,13.75
2023-04-12T22:38:37.824Z,11.03
2023-04-12T22:41:04.605Z,10.65
2023-04-12T22:43:41.929Z,9.30
2023-04-12T22:46:15.768Z,10.43
2023-04-12T22:48:43.909Z,8.85
2023-04-12T22:51:11.083Z,8.97
2023-04-12T22:53:37.785Z,10.82
2023-04-12T22:56:04.541Z,11.93
2023-04-12T22:58:31.487Z,16.55
2023-04-12T23:00:58.949Z,11.60
2023-04-12T23:03:25.784Z,7.63
2023-04-12T23:05:52.483Z,13.05
2023-04-12T23:08:20.371Z,9.00
2023-04-12T23:10:46.987Z,9.85
2023-04-12T23:13:13.881Z,12.00
2023-04-12T23:15:44.981Z,11.27
2023-04-12T23:18:13.782Z,9.07
2023-04-12T23:20:44.865Z,9.55
2023-04-12T23:23:11.404Z,11.30
2023-04-12T23:25:39.651Z,10.38
2023-04-12T23:28:12.830Z,8.47
2023-04-12T23:30:51.050Z,8.85
2023-04-12T23:33:20.271Z,10.23
2023-04-12T23:35:49.542Z,9.57
2023-04-12T23:38:23.198Z,11.65
2023-04-12T23:40:56.341Z,9.40
2023-04-12T23:43:24.598Z,10.60
2023-04-12T23:45:55.423Z,11.77
2023-04-12T23:48:23.363Z,10.20
2023-04-12T23:50:51.297Z,8.32
2023-04-12T23:53:19.138Z,7.93
2023-04-12T23:55:48.467Z,10.18
2023-04-12T23:58:15.800Z,9.68
